sensor_id;sensor_type;location;lat;lon;timestamp;P1;durP1;ratioP1;P2;durP2;ratioP2
24857;SDS011;12935;50.782;6.074;2022-10-16T00:00:56;1033.77;;;990.70;;
24857;SDS011;12935;50.782;6.074;2022-10-16T00:03:21;984.60;;;945.37;;
24857;SDS011;12935;50.782;6.074;2022-10-16T00:05:47;954.93;;;914.60;;
24857;SDS011;12935;50.782;6.074;2022-10-16T00:08:12;1006.83;;;966.37;;
24857;SDS011;12935;50.782;6.074;2022-10-16T00:10:38;984.60;;;943.97;;
24857;SDS011;12935;50.782;6.074;2022-10-16T00:13:04;960.37;;;922.13;;
24857;SDS011;12935;50.782;6.074;2022-10-16T00:15:32;1011.70;;;970.60;;
24857;SDS011;12935;50.782;6.074;2022-10-16T00:18:01;1009.20;;;968.47;;
24857;SDS011;12935;50.782;6.074;2022-10-16T00:20:26;1016.37;;;975.10;;
24857;SDS011;12935;50.782;6.074;2022-10-16T00:22:51;1033.90;;;990.87;;
24857;SDS011;12935;50.782;6.074;2022-10-16T00:25:17;970.27;;;932.07;;
24857;SDS011;12935;50.782;6.074;2022-10-16T00:27:42;1010.43;;;968.73;;
24857;SDS011;12935;50.782;6.074;2022-10-16T00:30:07;1046.30;;;995.90;;
24857;SDS011;12935;50.782;6.074;2022-10-16T00:32:33;952.47;;;915.27;;
24857;SDS011;12935;50.782;6.074;2022-10-16T00:34:58;978.17;;;938.70;;
24857;SDS011;12935;50.782;6.074;2022-10-16T00:37:24;932.47;;;895.73;;
24857;SDS011;12935;50.782;6.074;2022-10-16T00:39:50;946.10;;;908.17;;
24857;SDS011;12935;50.782;6.074;2022-10-16T00:42:16;944.93;;;904.57;;
24857;SDS011;12935;50.782;6.074;2022-10-16T00:44:50;1062.93;;;999.90;;
24857;SDS011;12935;50.782;6.074;2022-10-16T00:47:19;911.77;;;875.67;;
24857;SDS011;12935;50.782;6.074;2022-10-16T00:49:47;853.90;;;819.20;;
24857;SDS011;12935;50.782;6.074;2022-10-16T00:52:16;892.87;;;856.13;;
24857;SDS011;12935;50.782;6.074;2022-10-16T00:54:42;876.70;;;841.20;;
24857;SDS011;12935;50.782;6.074;2022-10-16T00:57:08;890.77;;;853.53;;
24857;SDS011;12935;50.782;6.074;2022-10-16T00:59:37;960.23;;;918.10;;
24857;SDS011;12935;50.782;6.074;2022-10-16T01:02:05;901.60;;;866.03;;
24857;SDS011;12935;50.782;6.074;2022-10-16T01:04:39;907.20;;;872.30;;
24857;SDS011;12935;50.782;6.074;2022-10-16T01:18:20;775.20;;;744.27;;
24857;SDS011;12935;50.782;6.074;2022-10-16T01:21:12;806.50;;;775.00;;
24857;SDS011;12935;50.782;6.074;2022-10-16T01:23:51;829.60;;;795.90;;
24857;SDS011;12935;50.782;6.074;2022-10-16T01:29:07;927.57;;;888.60;;
24857;SDS011;12935;50.782;6.074;2022-10-16T01:31:39;820.33;;;787.33;;
24857;SDS011;12935;50.782;6.074;2022-10-16T01:34:06;904.53;;;868.73;;
24857;SDS011;12935;50.782;6.074;2022-10-16T01:36:38;827.40;;;796.17;;
24857;SDS011;12935;50.782;6.074;2022-10-16T01:39:10;855.00;;;821.97;;
24857;SDS011;12935;50.782;6.074;2022-10-16T01:41:38;890.13;;;855.60;;
24857;SDS011;12935;50.782;6.074;2022-10-16T01:46:45;865.90;;;832.57;;
24857;SDS011;12935;50.782;6.074;2022-10-16T01:49:13;771.93;;;742.23;;
24857;SDS011;12935;50.782;6.074;2022-10-16T01:51:41;865.10;;;831.23;;
24857;SDS011;12935;50.782;6.074;2022-10-16T01:54:08;917.13;;;880.53;;
24857;SDS011;12935;50.782;6.074;2022-10-16T01:56:36;832.10;;;798.57;;
24857;SDS011;12935;50.782;6.074;2022-10-16T01:59:09;765.20;;;735.53;;
24857;SDS011;12935;50.782;6.074;2022-10-16T02:01:38;785.97;;;756.07;;
24857;SDS011;12935;50.782;6.074;2022-10-16T02:04:09;735.07;;;706.53;;
24857;SDS011;12935;50.782;6.074;2022-10-16T02:06:48;727.50;;;699.83;;
24857;SDS011;12935;50.782;6.074;2022-10-16T02:09:13;786.63;;;756.67;;
24857;SDS011;12935;50.782;6.074;2022-10-16T02:11:41;822.23;;;786.57;;
24857;SDS011;12935;50.782;6.074;2022-10-16T02:14:07;842.47;;;807.03;;
24857;SDS011;12935;50.782;6.074;2022-10-16T02:16:40;784.30;;;754.83;;
24857;SDS011;12935;50.782;6.074;2022-10-16T02:19:08;766.20;;;735.77;;
24857;SDS011;12935;50.782;6.074;2022-10-16T02:21:41;822.77;;;789.10;;
24857;SDS011;12935;50.782;6.074;2022-10-16T02:24:20;769.03;;;738.70;;
24857;SDS011;12935;50.782;6.074;2022-10-16T02:27:24;745.93;;;717.97;;
24857;SDS011;12935;50.782;6.074;2022-10-16T02:29:49;734.30;;;707.33;;
24857;SDS011;12935;50.782;6.074;2022-10-16T02:32:19;751.60;;;719.40;;
24857;SDS011;12935;50.782;6.074;2022-10-16T02:34:48;981.77;;;940.80;;
24857;SDS011;12935;50.782;6.074;2022-10-16T02:37:15;655.17;;;630.00;;
24857;SDS011;12935;50.782;6.074;2022-10-16T02:39:42;758.53;;;727.43;;
24857;SDS011;12935;50.782;6.074;2022-10-16T02:42:11;678.30;;;650.43;;
24857;SDS011;12935;50.782;6.074;2022-10-16T02:44:40;796.60;;;764.90;;
24857;SDS011;12935;50.782;6.074;2022-10-16T02:47:05;705.30;;;678.40;;
24857;SDS011;12935;50.782;6.074;2022-10-16T02:49:31;699.63;;;673.27;;
24857;SDS011;12935;50.782;6.074;2022-10-16T02:51:56;839.37;;;804.87;;
24857;SDS011;12935;50.782;6.074;2022-10-16T02:54:21;713.60;;;685.77;;
24857;SDS011;12935;50.782;6.074;2022-10-16T02:56:47;636.53;;;611.27;;
24857;SDS011;12935;50.782;6.074;2022-10-16T02:59:12;698.07;;;670.40;;
24857;SDS011;12935;50.782;6.074;2022-10-16T03:01:37;703.33;;;674.57;;
24857;SDS011;12935;50.782;6.074;2022-10-16T03:04:03;718.67;;;688.97;;
24857;SDS011;12935;50.782;6.074;2022-10-16T03:06:28;653.20;;;628.23;;
24857;SDS011;12935;50.782;6.074;2022-10-16T03:08:53;631.67;;;605.80;;
24857;SDS011;12935;50.782;6.074;2022-10-16T03:11:18;642.30;;;616.87;;
24857;SDS011;12935;50.782;6.074;2022-10-16T03:13:44;618.80;;;594.37;;
24857;SDS011;12935;50.782;6.074;2022-10-16T03:16:09;645.20;;;619.90;;
24857;SDS011;12935;50.782;6.074;2022-10-16T03:18:34;578.40;;;555.33;;
24857;SDS011;12935;50.782;6.074;2022-10-16T03:21:00;919.67;;;880.77;;
24857;SDS011;12935;50.782;6.074;2022-10-16T03:23:25;581.17;;;559.13;;
24857;SDS011;12935;50.782;6.074;2022-10-16T03:25:50;424.70;;;407.93;;
24857;SDS011;12935;50.782;6.074;2022-10-16T03:28:16;448.60;;;430.40;;
24857;SDS011;12935;50.782;6.074;2022-10-16T03:30:42;602.50;;;578.83;;
24857;SDS011;12935;50.782;6.074;2022-10-16T03:33:08;603.83;;;581.23;;
24857;SDS011;12935;50.782;6.074;2022-10-16T03:35:33;900.33;;;864.33;;
24857;SDS011;12935;50.782;6.074;2022-10-16T03:37:58;604.37;;;581.70;;
24857;SDS011;12935;50.782;6.074;2022-10-16T03:40:23;717.80;;;690.07;;
24857;SDS011;12935;50.782;6.074;2022-10-16T03:42:49;941.77;;;903.67;;
24857;SDS011;12935;50.782;6.074;2022-10-16T03:45:14;829.23;;;797.30;;
24857;SDS011;12935;50.782;6.074;2022-10-16T03:47:39;850.30;;;817.83;;
24857;SDS011;12935;50.782;6.074;2022-10-16T03:50:05;880.67;;;846.83;;
24857;SDS011;12935;50.782;6.074;2022-10-16T03:52:31;978.30;;;935.33;;
24857;SDS011;12935;50.782;6.074;2022-10-16T03:54:57;878.17;;;843.27;;
24857;SDS011;12935;50.782;6.074;2022-10-16T03:57:22;896.13;;;860.80;;
24857;SDS011;12935;50.782;6.074;2022-10-16T03:59:47;862.93;;;828.03;;
24857;SDS011;12935;50.782;6.074;2022-10-16T04:02:13;867.90;;;833.07;;
24857;SDS011;12935;50.782;6.074;2022-10-16T04:04:38;819.43;;;787.23;;
24857;SDS011;12935;50.782;6.074;2022-10-16T04:07:04;937.27;;;897.27;;
24857;SDS011;12935;50.782;6.074;2022-10-16T04:09:29;775.97;;;744.63;;
24857;SDS011;12935;50.782;6.074;2022-10-16T04:11:55;883.17;;;847.67;;
24857;SDS011;12935;50.782;6.074;2022-10-16T04:14:20;761.37;;;732.13;;
24857;SDS011;12935;50.782;6.074;2022-10-16T04:16:45;767.07;;;738.40;;
24857;SDS011;12935;50.782;6.074;2022-10-16T04:19:10;790.43;;;756.23;;
24857;SDS011;12935;50.782;6.074;2022-10-16T04:21:36;831.73;;;799.13;;
24857;SDS011;12935;50.782;6.074;2022-10-16T04:24:02;917.33;;;880.13;;
24857;SDS011;12935;50.782;6.074;2022-10-16T04:26:27;821.37;;;789.40;;
24857;SDS011;12935;50.782;6.074;2022-10-16T04:28:53;802.20;;;768.40;;
24857;SDS011;12935;50.782;6.074;2022-10-16T04:31:19;863.57;;;828.87;;
24857;SDS011;12935;50.782;6.074;2022-10-16T04:33:44;849.47;;;816.67;;
24857;SDS011;12935;50.782;6.074;2022-10-16T04:36:09;834.57;;;802.70;;
24857;SDS011;12935;50.782;6.074;2022-10-16T04:38:35;781.30;;;750.20;;
24857;SDS011;12935;50.782;6.074;2022-10-16T04:41:02;767.93;;;738.63;;
24857;SDS011;12935;50.782;6.074;2022-10-16T04:43:28;808.07;;;775.73;;
24857;SDS011;12935;50.782;6.074;2022-10-16T04:45:53;798.33;;;767.07;;
24857;SDS011;12935;50.782;6.074;2022-10-16T04:48:19;825.37;;;793.07;;
24857;SDS011;12935;50.782;6.074;2022-10-16T04:50:45;821.73;;;790.37;;
24857;SDS011;12935;50.782;6.074;2022-10-16T04:53:10;769.83;;;740.43;;
24857;SDS011;12935;50.782;6.074;2022-10-16T04:55:36;780.10;;;749.40;;
24857;SDS011;12935;50.782;6.074;2022-10-16T04:58:02;779.80;;;750.03;;
24857;SDS011;12935;50.782;6.074;2022-10-16T05:00:27;812.93;;;781.83;;
24857;SDS011;12935;50.782;6.074;2022-10-16T05:02:52;808.83;;;776.87;;
24857;SDS011;12935;50.782;6.074;2022-10-16T05:05:18;784.77;;;753.67;;
24857;SDS011;12935;50.782;6.074;2022-10-16T05:07:47;725.20;;;696.73;;
24857;SDS011;12935;50.782;6.074;2022-10-16T05:10:13;735.77;;;706.87;;
24857;SDS011;12935;50.782;6.074;2022-10-16T05:12:38;718.90;;;690.53;;
24857;SDS011;12935;50.782;6.074;2022-10-16T05:15:04;668.93;;;643.53;;
24857;SDS011;12935;50.782;6.074;2022-10-16T05:17:29;977.97;;;936.37;;
24857;SDS011;12935;50.782;6.074;2022-10-16T05:19:55;730.10;;;699.27;;
24857;SDS011;12935;50.782;6.074;2022-10-16T05:22:20;691.87;;;661.10;;
24857;SDS011;12935;50.782;6.074;2022-10-16T05:24:45;678.93;;;652.60;;
24857;SDS011;12935;50.782;6.074;2022-10-16T05:27:10;607.23;;;583.77;;
24857;SDS011;12935;50.782;6.074;2022-10-16T05:29:43;601.37;;;577.80;;
24857;SDS011;12935;50.782;6.074;2022-10-16T05:32:12;692.03;;;665.23;;
24857;SDS011;12935;50.782;6.074;2022-10-16T05:34:39;560.77;;;539.57;;
24857;SDS011;12935;50.782;6.074;2022-10-16T05:37:04;599.23;;;574.47;;
24857;SDS011;12935;50.782;6.074;2022-10-16T05:39:30;605.67;;;581.63;;
24857;SDS011;12935;50.782;6.074;2022-10-16T05:41:55;716.40;;;689.80;;
24857;SDS011;12935;50.782;6.074;2022-10-16T05:44:21;623.70;;;600.23;;
24857;SDS011;12935;50.782;6.074;2022-10-16T05:46:46;603.07;;;579.17;;
24857;SDS011;12935;50.782;6.074;2022-10-16T05:49:12;753.00;;;723.73;;
24857;SDS011;12935;50.782;6.074;2022-10-16T05:51:37;509.70;;;490.67;;
24857;SDS011;12935;50.782;6.074;2022-10-16T05:54:02;689.37;;;661.13;;
24857;SDS011;12935;50.782;6.074;2022-10-16T05:56:28;577.63;;;556.57;;
24857;SDS011;12935;50.782;6.074;2022-10-16T05:58:53;593.17;;;568.50;;
24857;SDS011;12935;50.782;6.074;2022-10-16T06:01:18;552.87;;;530.33;;
24857;SDS011;12935;50.782;6.074;2022-10-16T06:03:45;906.60;;;868.28;;
24857;SDS011;12935;50.782;6.074;2022-10-16T06:06:12;532.70;;;511.83;;
24857;SDS011;12935;50.782;6.074;2022-10-16T06:08:39;567.00;;;545.53;;
24857;SDS011;12935;50.782;6.074;2022-10-16T06:11:06;546.83;;;525.20;;
24857;SDS011;12935;50.782;6.074;2022-10-16T06:13:33;550.27;;;529.43;;
24857;SDS011;12935;50.782;6.074;2022-10-16T06:15:59;504.27;;;484.40;;
24857;SDS011;12935;50.782;6.074;2022-10-16T06:18:25;721.17;;;690.07;;
24857;SDS011;12935;50.782;6.074;2022-10-16T06:20:52;583.23;;;560.00;;
24857;SDS011;12935;50.782;6.074;2022-10-16T06:23:18;585.00;;;561.33;;
24857;SDS011;12935;50.782;6.074;2022-10-16T06:25:43;509.13;;;488.23;;
24857;SDS011;12935;50.782;6.074;2022-10-16T06:28:09;503.00;;;483.33;;
24857;SDS011;12935;50.782;6.074;2022-10-16T06:30:34;679.60;;;653.60;;
24857;SDS011;12935;50.782;6.074;2022-10-16T06:32:59;545.50;;;523.63;;
24857;SDS011;12935;50.782;6.074;2022-10-16T06:35:24;735.83;;;704.67;;
24857;SDS011;12935;50.782;6.074;2022-10-16T06:37:50;579.73;;;556.80;;
24857;SDS011;12935;50.782;6.074;2022-10-16T06:40:17;544.37;;;520.83;;
24857;SDS011;12935;50.782;6.074;2022-10-16T06:42:42;570.93;;;548.70;;
24857;SDS011;12935;50.782;6.074;2022-10-16T06:45:07;588.70;;;566.57;;
24857;SDS011;12935;50.782;6.074;2022-10-16T06:47:33;450.17;;;432.40;;
24857;SDS011;12935;50.782;6.074;2022-10-16T06:49:58;515.90;;;495.70;;
24857;SDS011;12935;50.782;6.074;2022-10-16T06:52:24;963.00;;;918.53;;
24857;SDS011;12935;50.782;6.074;2022-10-16T06:54:49;546.03;;;524.53;;
24857;SDS011;12935;50.782;6.074;2022-10-16T06:57:15;451.83;;;433.93;;
24857;SDS011;12935;50.782;6.074;2022-10-16T06:59:40;604.93;;;580.00;;
24857;SDS011;12935;50.782;6.074;2022-10-16T07:02:06;549.60;;;526.90;;
24857;SDS011;12935;50.782;6.074;2022-10-16T07:04:32;493.27;;;473.93;;
24857;SDS011;12935;50.782;6.074;2022-10-16T07:06:57;535.67;;;515.47;;
24857;SDS011;12935;50.782;6.074;2022-10-16T07:09:24;489.37;;;468.13;;
24857;SDS011;12935;50.782;6.074;2022-10-16T07:11:50;500.97;;;481.63;;
24857;SDS011;12935;50.782;6.074;2022-10-16T07:14:16;476.90;;;458.00;;
24857;SDS011;12935;50.782;6.074;2022-10-16T07:16:43;524.90;;;504.60;;
24857;SDS011;12935;50.782;6.074;2022-10-16T07:19:08;516.37;;;493.47;;
24857;SDS011;12935;50.782;6.074;2022-10-16T07:21:36;467.50;;;449.50;;
24857;SDS011;12935;50.782;6.074;2022-10-16T07:24:02;536.33;;;514.13;;
24857;SDS011;12935;50.782;6.074;2022-10-16T07:26:29;436.10;;;418.57;;
24857;SDS011;12935;50.782;6.074;2022-10-16T07:28:56;443.57;;;425.87;;
24857;SDS011;12935;50.782;6.074;2022-10-16T07:31:22;388.13;;;371.23;;
24857;SDS011;12935;50.782;6.074;2022-10-16T07:33:48;385.00;;;369.07;;
24857;SDS011;12935;50.782;6.074;2022-10-16T07:36:14;395.37;;;380.73;;
24857;SDS011;12935;50.782;6.074;2022-10-16T07:38:41;776.50;;;744.33;;
24857;SDS011;12935;50.782;6.074;2022-10-16T07:41:07;440.67;;;422.98;;
24857;SDS011;12935;50.782;6.074;2022-10-16T07:43:35;406.67;;;390.27;;
24857;SDS011;12935;50.782;6.074;2022-10-16T07:46:01;341.97;;;325.07;;
24857;SDS011;12935;50.782;6.074;2022-10-16T07:48:27;334.07;;;317.53;;
24857;SDS011;12935;50.782;6.074;2022-10-16T07:50:58;356.83;;;341.23;;
24857;SDS011;12935;50.782;6.074;2022-10-16T07:53:24;753.47;;;723.20;;
24857;SDS011;12935;50.782;6.074;2022-10-16T07:55:49;297.93;;;284.70;;
24857;SDS011;12935;50.782;6.074;2022-10-16T07:58:14;312.07;;;296.97;;
24857;SDS011;12935;50.782;6.074;2022-10-16T08:00:40;340.97;;;326.17;;
24857;SDS011;12935;50.782;6.074;2022-10-16T08:03:05;361.87;;;345.67;;
24857;SDS011;12935;50.782;6.074;2022-10-16T08:05:31;286.80;;;272.30;;
24857;SDS011;12935;50.782;6.074;2022-10-16T08:07:57;677.43;;;648.73;;
24857;SDS011;12935;50.782;6.074;2022-10-16T08:10:24;357.23;;;342.67;;
24857;SDS011;12935;50.782;6.074;2022-10-16T08:12:50;436.87;;;418.43;;
24857;SDS011;12935;50.782;6.074;2022-10-16T08:15:17;493.73;;;473.27;;
24857;SDS011;12935;50.782;6.074;2022-10-16T08:17:42;408.57;;;391.87;;
24857;SDS011;12935;50.782;6.074;2022-10-16T08:20:08;395.67;;;380.13;;
24857;SDS011;12935;50.782;6.074;2022-10-16T08:22:34;320.10;;;306.27;;
24857;SDS011;12935;50.782;6.074;2022-10-16T08:24:59;789.70;;;758.07;;
24857;SDS011;12935;50.782;6.074;2022-10-16T08:27:24;346.20;;;331.87;;
24857;SDS011;12935;50.782;6.074;2022-10-16T08:29:50;323.80;;;308.03;;
24857;SDS011;12935;50.782;6.074;2022-10-16T08:32:15;351.07;;;333.47;;
24857;SDS011;12935;50.782;6.074;2022-10-16T08:34:41;297.33;;;283.53;;
24857;SDS011;12935;50.782;6.074;2022-10-16T08:37:06;253.10;;;241.43;;
24857;SDS011;12935;50.782;6.074;2022-10-16T08:39:33;251.77;;;239.17;;
24857;SDS011;12935;50.782;6.074;2022-10-16T08:44:57;256.57;;;245.07;;
24857;SDS011;12935;50.782;6.074;2022-10-16T08:50:18;295.23;;;281.73;;
24857;SDS011;12935;50.782;6.074;2022-10-16T08:52:56;253.67;;;242.70;;
24857;SDS011;12935;50.782;6.074;2022-10-16T08:55:28;259.57;;;247.77;;
24857;SDS011;12935;50.782;6.074;2022-10-16T08:57:54;280.20;;;267.63;;
24857;SDS011;12935;50.782;6.074;2022-10-16T09:00:19;259.40;;;246.17;;
24857;SDS011;12935;50.782;6.074;2022-10-16T09:02:50;481.10;;;459.93;;
24857;SDS011;12935;50.782;6.074;2022-10-16T09:05:37;400.63;;;383.97;;
24857;SDS011;12935;50.782;6.074;2022-10-16T09:08:15;390.10;;;373.10;;
24857;SDS011;12935;50.782;6.074;2022-10-16T09:10:58;353.20;;;339.23;;
24857;SDS011;12935;50.782;6.074;2022-10-16T09:13:41;314.03;;;300.10;;
24857;SDS011;12935;50.782;6.074;2022-10-16T09:16:21;302.67;;;289.30;;
24857;SDS011;12935;50.782;6.074;2022-10-16T09:21:45;357.10;;;341.03;;
24857;SDS011;12935;50.782;6.074;2022-10-16T09:24:19;342.67;;;327.93;;
24857;SDS011;12935;50.782;6.074;2022-10-16T09:26:46;306.23;;;290.83;;
24857;SDS011;12935;50.782;6.074;2022-10-16T09:29:12;638.50;;;609.27;;
24857;SDS011;12935;50.782;6.074;2022-10-16T09:31:39;225.80;;;212.43;;
24857;SDS011;12935;50.782;6.074;2022-10-16T09:34:05;289.13;;;274.60;;
24857;SDS011;12935;50.782;6.074;2022-10-16T09:36:37;170.53;;;160.70;;
24857;SDS011;12935;50.782;6.074;2022-10-16T09:39:10;216.13;;;204.07;;
24857;SDS011;12935;50.782;6.074;2022-10-16T09:41:41;239.00;;;228.13;;
24857;SDS011;12935;50.782;6.074;2022-10-16T09:44:41;251.20;;;238.83;;
24857;SDS011;12935;50.782;6.074;2022-10-16T09:47:00;228.83;;;215.07;;
24857;SDS011;12935;50.782;6.074;2022-10-16T09:49:30;198.93;;;188.73;;
24857;SDS011;12935;50.782;6.074;2022-10-16T09:52:12;219.97;;;208.83;;
24857;SDS011;12935;50.782;6.074;2022-10-16T09:54:52;189.93;;;176.70;;
24857;SDS011;12935;50.782;6.074;2022-10-16T09:57:19;164.87;;;155.97;;
24857;SDS011;12935;50.782;6.074;2022-10-16T09:59:46;164.77;;;155.63;;
24857;SDS011;12935;50.782;6.074;2022-10-16T10:02:14;362.53;;;346.70;;
24857;SDS011;12935;50.782;6.074;2022-10-16T10:04:43;349.77;;;334.77;;
24857;SDS011;12935;50.782;6.074;2022-10-16T10:07:18;347.13;;;332.87;;
24857;SDS011;12935;50.782;6.074;2022-10-16T10:09:48;273.43;;;259.77;;
24857;SDS011;12935;50.782;6.074;2022-10-16T10:12:17;293.27;;;278.47;;
24857;SDS011;12935;50.782;6.074;2022-10-16T10:14:46;194.47;;;184.20;;
24857;SDS011;12935;50.782;6.074;2022-10-16T10:19:45;151.47;;;142.57;;
24857;SDS011;12935;50.782;6.074;2022-10-16T10:27:55;260.13;;;247.53;;
24857;SDS011;12935;50.782;6.074;2022-10-16T10:33:24;637.53;;;610.77;;
24857;SDS011;12935;50.782;6.074;2022-10-16T10:38:32;161.43;;;152.53;;
24857;SDS011;12935;50.782;6.074;2022-10-16T10:52:41;245.13;;;231.83;;
24857;SDS011;12935;50.782;6.074;2022-10-16T10:58:00;204.43;;;193.97;;
24857;SDS011;12935;50.782;6.074;2022-10-16T11:08:53;790.70;;;758.23;;
24857;SDS011;12935;50.782;6.074;2022-10-16T11:11:27;928.43;;;889.10;;
24857;SDS011;12935;50.782;6.074;2022-10-16T11:13:59;944.43;;;904.30;;
24857;SDS011;12935;50.782;6.074;2022-10-16T11:16:35;933.03;;;893.33;;
24857;SDS011;12935;50.782;6.074;2022-10-16T11:19:21;952.27;;;911.17;;
24857;SDS011;12935;50.782;6.074;2022-10-16T11:22:16;963.33;;;922.10;;
24857;SDS011;12935;50.782;6.074;2022-10-16T11:27:47;960.90;;;920.10;;
24857;SDS011;12935;50.782;6.074;2022-10-16T11:30:19;983.73;;;941.10;;
24857;SDS011;12935;50.782;6.074;2022-10-16T11:35:39;1007.37;;;964.27;;
24857;SDS011;12935;50.782;6.074;2022-10-16T11:38:14;1012.87;;;969.10;;
24857;SDS011;12935;50.782;6.074;2022-10-16T11:40:48;1048.23;;;999.90;;
24857;SDS011;12935;50.782;6.074;2022-10-16T11:45:52;1025.87;;;980.87;;
24857;SDS011;12935;50.782;6.074;2022-10-16T11:48:25;1021.00;;;975.13;;
24857;SDS011;12935;50.782;6.074;2022-10-16T11:51:02;1061.23;;;999.90;;
24857;SDS011;12935;50.782;6.074;2022-10-16T11:53:39;1110.30;;;999.90;;
24857;SDS011;12935;50.782;6.074;2022-10-16T11:56:22;1116.93;;;999.90;;
24857;SDS011;12935;50.782;6.074;2022-10-16T11:58:52;1106.07;;;999.90;;
24857;SDS011;12935;50.782;6.074;2022-10-16T12:01:22;1092.00;;;999.90;;
24857;SDS011;12935;50.782;6.074;2022-10-16T12:06:37;1052.27;;;999.90;;
24857;SDS011;12935;50.782;6.074;2022-10-16T12:09:05;1021.77;;;977.40;;
24857;SDS011;12935;50.782;6.074;2022-10-16T12:11:37;1000.37;;;956.57;;
24857;SDS011;12935;50.782;6.074;2022-10-16T12:16:38;998.53;;;955.27;;
24857;SDS011;12935;50.782;6.074;2022-10-16T12:19:16;961.33;;;920.03;;
24857;SDS011;12935;50.782;6.074;2022-10-16T12:21:42;1043.20;;;998.00;;
24857;SDS011;12935;50.782;6.074;2022-10-16T12:26:56;1056.50;;;999.90;;
24857;SDS011;12935;50.782;6.074;2022-10-16T12:29:23;1067.07;;;999.90;;
24857;SDS011;12935;50.782;6.074;2022-10-16T12:31:51;1130.60;;;999.90;;
24857;SDS011;12935;50.782;6.074;2022-10-16T12:36:53;1145.37;;;999.90;;
24857;SDS011;12935;50.782;6.074;2022-10-16T12:39:23;1174.40;;;999.90;;
24857;SDS011;12935;50.782;6.074;2022-10-16T12:42:03;1161.03;;;999.90;;
24857;SDS011;12935;50.782;6.074;2022-10-16T12:44:34;1153.80;;;999.90;;
24857;SDS011;12935;50.782;6.074;2022-10-16T12:47:00;1107.30;;;999.90;;
24857;SDS011;12935;50.782;6.074;2022-10-16T12:49:37;1165.37;;;999.90;;
24857;SDS011;12935;50.782;6.074;2022-10-16T12:52:22;1175.97;;;999.90;;
24857;SDS011;12935;50.782;6.074;2022-10-16T12:54:50;1152.77;;;999.90;;
24857;SDS011;12935;50.782;6.074;2022-10-16T12:57:24;1181.73;;;999.90;;
24857;SDS011;12935;50.782;6.074;2022-10-16T13:03:13;1167.87;;;999.90;;
24857;SDS011;12935;50.782;6.074;2022-10-16T13:06:13;1174.00;;;999.90;;
24857;SDS011;12935;50.782;6.074;2022-10-16T13:14:37;1119.93;;;999.90;;
24857;SDS011;12935;50.782;6.074;2022-10-16T13:17:32;1158.50;;;999.90;;
24857;SDS011;12935;50.782;6.074;2022-10-16T13:25:43;1178.13;;;999.90;;
24857;SDS011;12935;50.782;6.074;2022-10-16T13:28:27;1156.20;;;999.90;;
24857;SDS011;12935;50.782;6.074;2022-10-16T13:30:54;1111.87;;;999.90;;
24857;SDS011;12935;50.782;6.074;2022-10-16T13:33:33;1059.00;;;999.90;;
24857;SDS011;12935;50.782;6.074;2022-10-16T13:36:01;1032.03;;;986.10;;
24857;SDS011;12935;50.782;6.074;2022-10-16T13:38:28;987.77;;;945.47;;
24857;SDS011;12935;50.782;6.074;2022-10-16T13:41:00;1069.30;;;999.90;;
24857;SDS011;12935;50.782;6.074;2022-10-16T13:43:40;1048.73;;;998.80;;
24857;SDS011;12935;50.782;6.074;2022-10-16T13:48:39;1045.10;;;996.73;;
24857;SDS011;12935;50.782;6.074;2022-10-16T13:51:15;1079.63;;;999.90;;
24857;SDS011;12935;50.782;6.074;2022-10-16T13:53:42;944.13;;;903.63;;
24857;SDS011;12935;50.782;6.074;2022-10-16T13:56:13;866.53;;;830.43;;
24857;SDS011;12935;50.782;6.074;2022-10-16T13:58:44;664.60;;;636.10;;
24857;SDS011;12935;50.782;6.074;2022-10-16T14:01:26;906.23;;;865.23;;
24857;SDS011;12935;50.782;6.074;2022-10-16T14:03:59;926.73;;;887.43;;
24857;SDS011;12935;50.782;6.074;2022-10-16T14:06:27;629.10;;;603.93;;
24857;SDS011;12935;50.782;6.074;2022-10-16T14:08:55;650.60;;;624.03;;
24857;SDS011;12935;50.782;6.074;2022-10-16T14:11:22;590.60;;;565.50;;
24857;SDS011;12935;50.782;6.074;2022-10-16T14:13:48;462.93;;;442.97;;
24857;SDS011;12935;50.782;6.074;2022-10-16T14:16:28;372.60;;;356.23;;
24857;SDS011;12935;50.782;6.074;2022-10-16T14:19:00;676.23;;;645.70;;
24857;SDS011;12935;50.782;6.074;2022-10-16T14:21:28;375.90;;;361.53;;
24857;SDS011;12935;50.782;6.074;2022-10-16T14:23:53;356.13;;;341.40;;
24857;SDS011;12935;50.782;6.074;2022-10-16T14:26:20;292.90;;;277.80;;
24857;SDS011;12935;50.782;6.074;2022-10-16T14:28:48;219.43;;;205.87;;
24857;SDS011;12935;50.782;6.074;2022-10-16T14:33:52;245.33;;;230.13;;
24857;SDS011;12935;50.782;6.074;2022-10-16T14:36:18;254.73;;;239.83;;
24857;SDS011;12935;50.782;6.074;2022-10-16T14:41:26;411.10;;;394.43;;
24857;SDS011;12935;50.782;6.074;2022-10-16T14:43:54;398.00;;;380.47;;
24857;SDS011;12935;50.782;6.074;2022-10-16T14:46:32;431.03;;;412.57;;
24857;SDS011;12935;50.782;6.074;2022-10-16T14:49:02;473.47;;;451.70;;
24857;SDS011;12935;50.782;6.074;2022-10-16T14:51:29;441.13;;;421.10;;
24857;SDS011;12935;50.782;6.074;2022-10-16T14:53:55;429.90;;;411.97;;
24857;SDS011;12935;50.782;6.074;2022-10-16T14:56:24;324.77;;;309.33;;
24857;SDS011;12935;50.782;6.074;2022-10-16T14:58:52;277.93;;;264.23;;
24857;SDS011;12935;50.782;6.074;2022-10-16T15:01:18;264.90;;;252.30;;
24857;SDS011;12935;50.782;6.074;2022-10-16T15:03:44;179.73;;;168.23;;
24857;SDS011;12935;50.782;6.074;2022-10-16T15:06:13;138.73;;;129.83;;
24857;SDS011;12935;50.782;6.074;2022-10-16T15:08:40;122.43;;;112.13;;
24857;SDS011;12935;50.782;6.074;2022-10-16T15:11:08;382.57;;;365.50;;
24857;SDS011;12935;50.782;6.074;2022-10-16T15:13:37;338.60;;;324.60;;
24857;SDS011;12935;50.782;6.074;2022-10-16T15:16:02;300.67;;;285.17;;
24857;SDS011;12935;50.782;6.074;2022-10-16T15:18:27;266.50;;;249.07;;
24857;SDS011;12935;50.782;6.074;2022-10-16T15:20:53;362.33;;;344.87;;
24857;SDS011;12935;50.782;6.074;2022-10-16T15:23:19;305.97;;;291.63;;
24857;SDS011;12935;50.782;6.074;2022-10-16T15:28:19;178.30;;;168.50;;
24857;SDS011;12935;50.782;6.074;2022-10-16T15:30:45;489.20;;;468.97;;
24857;SDS011;12935;50.782;6.074;2022-10-16T15:33:16;233.90;;;220.70;;
24857;SDS011;12935;50.782;6.074;2022-10-16T15:35:47;593.43;;;570.13;;
24857;SDS011;12935;50.782;6.074;2022-10-16T15:38:13;162.37;;;152.87;;
24857;SDS011;12935;50.782;6.074;2022-10-16T15:40:40;1035.27;;;990.70;;
24857;SDS011;12935;50.782;6.074;2022-10-16T15:43:06;820.37;;;784.63;;
24857;SDS011;12935;50.782;6.074;2022-10-16T15:45:32;776.17;;;745.07;;
24857;SDS011;12935;50.782;6.074;2022-10-16T15:47:57;666.07;;;640.20;;